createdAt,value
2023-02-25T00:02:03.508Z,92.34
2023-02-25T00:04:32.904Z,92.45
2023-02-25T00:07:22.924Z,92.71
2023-02-25T00:09:54.341Z,92.64
2023-02-25T00:12:24.283Z,92.84
2023-02-25T00:14:52.904Z,92.88
2023-02-25T00:17:21.209Z,93.12
2023-02-25T00:19:49.313Z,93.06
2023-02-25T00:22:21.449Z,93.10
2023-02-25T00:24:56.139Z,92.94
2023-02-25T00:27:25.595Z,93.45
2023-02-25T00:29:54.729Z,93.45
2023-02-25T00:32:23.533Z,93.56
2023-02-25T00:34:52.498Z,93.62
2023-02-25T00:37:21.540Z,93.74
2023-02-25T00:39:49.822Z,93.89
2023-02-25T00:42:18.973Z,93.95
2023-02-25T00:44:49.912Z,94.07
2023-02-25T00:47:19.415Z,94.23
2023-02-25T00:49:53.238Z,94.06
2023-02-25T00:52:21.502Z,94.09
2023-02-25T00:54:49.879Z,94.08
2023-02-25T00:57:18.365Z,94.48
2023-02-25T00:59:46.617Z,94.11
2023-02-25T01:02:14.808Z,94.31
2023-02-25T01:04:44.023Z,94.37
2023-02-25T01:07:14.331Z,94.42
2023-02-25T01:09:42.753Z,94.54
2023-02-25T01:12:10.965Z,94.58
2023-02-25T01:14:41.204Z,94.37
2023-02-25T01:17:09.789Z,94.45
2023-02-25T01:19:41.876Z,94.64
2023-02-25T01:22:10.761Z,94.57
2023-02-25T01:24:39.378Z,94.51
2023-02-25T01:27:08.741Z,94.52
2023-02-25T01:29:40.660Z,94.63
2023-02-25T01:32:13.968Z,94.63
2023-02-25T01:34:43.068Z,94.47
2023-02-25T01:37:11.983Z,94.60
2023-02-25T01:39:41.711Z,94.48
2023-02-25T01:42:19.314Z,94.61
2023-02-25T01:45:22.416Z,94.56
2023-02-25T01:47:58.700Z,94.69
2023-02-25T01:50:32.079Z,94.75
2023-02-25T01:53:00.426Z,94.66
2023-02-25T01:55:29.682Z,94.74
2023-02-25T01:57:58.982Z,94.91
2023-02-25T02:00:28.780Z,94.67
2023-02-25T02:02:57.712Z,94.62
2023-02-25T02:05:38.464Z,94.81
2023-02-25T02:08:06.702Z,94.72
2023-02-25T02:10:35.433Z,94.98
2023-02-25T02:13:05.637Z,95.02
2023-02-25T02:15:35.829Z,94.90
2023-02-25T02:18:04.566Z,94.85
2023-02-25T02:20:39.645Z,95.08
2023-02-25T02:23:17.243Z,94.96
2023-02-25T02:26:21.515Z,95.27
2023-02-25T02:29:14.473Z,95.09
2023-02-25T02:31:59.375Z,95.22
2023-02-25T02:34:46.234Z,95.41
2023-02-25T02:37:24.881Z,95.54
2023-02-25T02:40:24.581Z,95.51
2023-02-25T02:43:07.326Z,95.23
2023-02-25T02:45:40.168Z,95.37
2023-02-25T02:48:25.431Z,95.53
2023-02-25T02:50:59.050Z,95.73
2023-02-25T02:53:50.042Z,95.65
2023-02-25T02:56:19.026Z,95.83
2023-02-25T02:58:48.832Z,95.67
2023-02-25T03:01:30.323Z,95.84
2023-02-25T03:04:13.830Z,95.69
2023-02-25T03:06:47.066Z,95.61
2023-02-25T03:09:18.753Z,95.65
2023-02-25T03:11:48.845Z,95.73
2023-02-25T03:14:18.486Z,96.05
2023-02-25T03:17:32.108Z,95.92
2023-02-25T03:20:14.236Z,95.73
2023-02-25T03:22:45.486Z,95.75
2023-02-25T03:25:24.058Z,95.80
2023-02-25T03:27:53.776Z,95.87
2023-02-25T03:30:36.608Z,95.99
2023-02-25T03:33:11.986Z,95.62
2023-02-25T03:35:42.487Z,95.81
2023-02-25T03:38:18.302Z,95.74
2023-02-25T03:40:47.820Z,95.77
2023-02-25T03:43:18.351Z,95.56
2023-02-25T03:45:48.089Z,95.91
2023-02-25T03:48:17.235Z,95.80
2023-02-25T03:50:59.423Z,95.83
2023-02-25T03:53:47.754Z,95.78
2023-02-25T03:56:20.647Z,95.97
2023-02-25T03:58:49.012Z,95.58
2023-02-25T04:01:23.132Z,95.80
2023-02-25T04:03:51.425Z,95.79
2023-02-25T04:06:23.146Z,96.05
2023-02-25T04:08:52.034Z,96.19
2023-02-25T04:11:20.648Z,96.17
2023-02-25T04:13:49.398Z,96.22
2023-02-25T04:16:17.682Z,96.39
2023-02-25T04:18:49.114Z,96.25
2023-02-25T04:21:28.143Z,96.32
2023-02-25T04:23:56.457Z,96.33
2023-02-25T04:26:25.102Z,96.31
2023-02-25T04:28:57.451Z,96.30
2023-02-25T04:31:25.907Z,96.41
2023-02-25T04:33:54.299Z,96.31
2023-02-25T04:36:27.642Z,96.24
2023-02-25T04:38:56.268Z,96.44
2023-02-25T04:41:29.790Z,96.38
2023-02-25T04:43:59.793Z,96.62
2023-02-25T04:46:28.136Z,96.66
2023-02-25T04:48:56.686Z,96.50
2023-02-25T04:51:29.146Z,96.82
2023-02-25T04:53:57.421Z,96.72
2023-02-25T04:56:25.932Z,97.10
2023-02-25T04:58:54.608Z,96.85
2023-02-25T05:01:23.187Z,96.77
2023-02-25T05:03:57.235Z,96.76
2023-02-25T05:06:26.009Z,96.88
2023-02-25T05:08:59.247Z,97.11
2023-02-25T05:11:28.282Z,97.01
2023-02-25T05:13:58.469Z,97.08
2023-02-25T05:16:27.579Z,97.18
2023-02-25T05:18:56.111Z,97.07
2023-02-25T05:21:26.140Z,97.57
2023-02-25T05:23:55.161Z,97.19
2023-02-25T05:26:24.355Z,97.22
2023-02-25T05:28:55.126Z,97.40
2023-02-25T05:31:25.045Z,97.24
2023-02-25T05:33:53.625Z,97.19
2023-02-25T05:36:22.315Z,97.37
2023-02-25T05:38:55.308Z,97.55
2023-02-25T05:41:23.841Z,97.26
2023-02-25T05:43:52.025Z,97.28
2023-02-25T05:46:20.464Z,97.38
2023-02-25T05:48:49.918Z,97.16
2023-02-25T05:51:23.682Z,97.22
2023-02-25T05:53:52.448Z,97.56
2023-02-25T05:56:22.874Z,97.26
2023-02-25T05:58:57.130Z,97.31
2023-02-25T06:01:29.642Z,97.51
2023-02-25T06:03:59.129Z,97.38
2023-02-25T06:06:29.250Z,97.21
2023-02-25T06:08:58.568Z,97.16
2023-02-25T06:11:28.895Z,97.28
2023-02-25T06:13:57.413Z,97.48
2023-02-25T06:16:32.393Z,97.54
2023-02-25T06:19:02.580Z,97.37
2023-02-25T06:21:34.308Z,97.63
2023-02-25T06:24:05.470Z,97.51
2023-02-25T06:26:43.518Z,97.49
2023-02-25T06:29:11.763Z,97.64
2023-02-25T06:31:40.588Z,97.63
2023-02-25T06:34:09.001Z,97.74
2023-02-25T06:36:37.218Z,97.74
2023-02-25T06:39:05.431Z,97.65
2023-02-25T06:41:33.719Z,97.90
2023-02-25T06:44:04.434Z,97.76
2023-02-25T06:46:33.372Z,97.74
2023-02-25T06:49:04.558Z,97.81
2023-02-25T06:51:32.796Z,97.84
2023-02-25T06:54:06.129Z,97.88
2023-02-25T06:56:35.039Z,97.61
2023-02-25T06:59:03.290Z,97.83
2023-02-25T07:01:33.384Z,97.83
2023-02-25T07:04:01.840Z,97.66
2023-02-25T07:06:30.821Z,97.49
2023-02-25T07:08:58.931Z,97.18
2023-02-25T07:11:30.034Z,97.23
2023-02-25T07:13:58.484Z,97.60
2023-02-25T07:16:27.024Z,97.59
2023-02-25T07:18:57.895Z,97.23
2023-02-25T07:21:29.409Z,97.26
2023-02-25T07:23:58.198Z,97.15
2023-02-25T07:26:28.619Z,96.83
2023-02-25T07:28:58.307Z,96.98
2023-02-25T07:31:27.392Z,97.07
2023-02-25T07:33:56.264Z,96.91
2023-02-25T07:36:26.296Z,96.77
2023-02-25T07:38:54.921Z,97.25
2023-02-25T07:41:23.404Z,96.66
2023-02-25T07:43:52.782Z,96.63
2023-02-25T07:46:22.368Z,96.47
2023-02-25T07:48:53.707Z,96.37
2023-02-25T07:51:24.002Z,96.27
2023-02-25T07:53:54.018Z,95.99
2023-02-25T07:56:27.412Z,96.23
2023-02-25T07:58:56.747Z,95.79
2023-02-25T08:01:28.015Z,95.40
2023-02-25T08:04:04.412Z,95.34
2023-02-25T08:06:38.019Z,95.39
2023-02-25T08:09:07.326Z,95.12
2023-02-25T08:11:36.091Z,94.98
2023-02-25T08:14:05.789Z,95.01
2023-02-25T08:16:34.217Z,94.84
2023-02-25T08:19:02.599Z,94.82
2023-02-25T08:21:33.573Z,94.76
2023-02-25T08:24:05.321Z,94.37
2023-02-25T08:26:33.846Z,94.34
2023-02-25T08:29:02.339Z,94.42
2023-02-25T08:31:34.206Z,94.32
2023-02-25T08:34:05.426Z,94.22
2023-02-25T08:36:34.647Z,93.94
2023-02-25T08:39:03.369Z,93.85
2023-02-25T08:41:31.746Z,93.79
2023-02-25T08:44:01.408Z,93.82
2023-02-25T08:46:32.650Z,93.70
2023-02-25T08:49:01.410Z,93.79
2023-02-25T08:51:36.486Z,93.51
2023-02-25T08:54:10.164Z,93.63
2023-02-25T08:56:44.298Z,93.23
2023-02-25T08:59:14.704Z,93.51
2023-02-25T09:01:45.944Z,93.36
2023-02-25T09:04:16.529Z,93.16
2023-02-25T09:06:47.449Z,93.21
2023-02-25T09:09:16.341Z,92.69
2023-02-25T09:11:46.154Z,92.72
2023-02-25T09:14:16.872Z,92.86
2023-02-25T09:16:46.963Z,92.69
2023-02-25T09:19:18.578Z,92.56
2023-02-25T09:21:50.455Z,92.50
2023-02-25T09:24:19.974Z,92.51
2023-02-25T09:26:48.270Z,92.24
2023-02-25T09:29:17.053Z,91.93
2023-02-25T09:31:45.609Z,91.55
2023-02-25T09:34:14.201Z,91.03
2023-02-25T09:36:43.186Z,91.01
2023-02-25T09:39:11.721Z,90.65
2023-02-25T09:41:56.319Z,89.93
2023-02-25T09:44:28.835Z,88.97
2023-02-25T09:47:02.767Z,88.44
2023-02-25T09:49:37.954Z,87.92
2023-02-25T09:52:12.546Z,87.49
2023-02-25T09:54:48.330Z,86.78
2023-02-25T09:57:19.345Z,86.20
2023-02-25T09:59:48.656Z,85.52
2023-02-25T10:02:27.828Z,85.06
2023-02-25T10:05:33.477Z,84.05
2023-02-25T10:08:29.692Z,83.35
2023-02-25T10:11:04.279Z,82.57
2023-02-25T10:13:41.491Z,82.37
2023-02-25T10:16:14.394Z,81.20
2023-02-25T10:19:11.282Z,80.54
2023-02-25T10:22:10.130Z,79.29
2023-02-25T10:24:48.718Z,78.80
2023-02-25T10:27:22.571Z,78.76
2023-02-25T10:30:02.253Z,77.79
2023-02-25T10:32:37.215Z,77.20
2023-02-25T10:35:36.992Z,76.31
2023-02-25T10:38:06.058Z,75.45
2023-02-25T10:40:37.104Z,75.10
2023-02-25T10:43:26.390Z,74.38
2023-02-25T10:46:17.451Z,74.17
2023-02-25T10:48:52.409Z,73.88
2023-02-25T10:51:21.886Z,73.33
2023-02-25T10:53:58.213Z,72.78
2023-02-25T10:56:31.666Z,72.46
2023-02-25T10:59:05.475Z,72.43
2023-02-25T11:01:39.691Z,71.87
2023-02-25T11:04:12.584Z,71.05
2023-02-25T11:06:42.918Z,70.38
2023-02-25T11:09:20.792Z,69.59
2023-02-25T11:12:09.872Z,69.29
2023-02-25T11:14:39.830Z,68.50
2023-02-25T11:17:14.090Z,68.12
2023-02-25T11:20:00.062Z,68.16
2023-02-25T11:22:38.103Z,68.19
2023-02-25T11:25:14.532Z,68.14
2023-02-25T11:27:43.618Z,68.19
2023-02-25T11:30:15.658Z,68.28
2023-02-25T11:32:54.265Z,68.50
2023-02-25T11:35:30.801Z,68.16
2023-02-25T11:37:59.681Z,68.85
2023-02-25T11:40:30.046Z,69.22
2023-02-25T11:46:23.221Z,69.83
2023-02-25T11:49:00.607Z,69.63
2023-02-25T11:51:47.344Z,69.76
2023-02-25T11:54:26.053Z,69.88
2023-02-25T11:57:17.370Z,69.63
2023-02-25T11:59:54.386Z,69.72
2023-02-25T12:02:48.568Z,69.90
2023-02-25T12:05:46.146Z,69.77
2023-02-25T12:08:23.306Z,69.39
2023-02-25T12:11:32.323Z,69.07
2023-02-25T12:14:38.960Z,69.11
2023-02-25T12:17:32.347Z,69.49
2023-02-25T12:20:32.407Z,69.81
2023-02-25T12:23:29.982Z,69.77
2023-02-25T12:26:24.431Z,70.09
2023-02-25T12:29:10.793Z,70.40
2023-02-25T12:32:11.429Z,70.28
2023-02-25T12:35:17.906Z,70.65
2023-02-25T12:38:05.183Z,71.08
2023-02-25T12:40:36.792Z,71.45
2023-02-25T12:43:30.101Z,71.26
2023-02-25T12:46:11.041Z,71.84
2023-02-25T12:49:25.073Z,72.10
2023-02-25T12:52:18.773Z,72.47
2023-02-25T12:55:00.327Z,72.62
2023-02-25T12:57:33.224Z,72.92
2023-02-25T13:00:17.390Z,73.06
2023-02-25T13:03:03.722Z,73.36
2023-02-25T13:05:38.135Z,73.29
2023-02-25T13:08:12.686Z,73.75
2023-02-25T13:10:47.595Z,73.74
2023-02-25T13:13:49.770Z,73.77
2023-02-25T13:16:37.477Z,73.91
2023-02-25T13:19:27.128Z,74.18
2023-02-25T13:22:00.146Z,74.27
2023-02-25T13:24:40.389Z,74.56
2023-02-25T13:27:33.905Z,74.65
2023-02-25T13:30:12.165Z,74.66
2023-02-25T13:33:14.256Z,74.57
2023-02-25T13:36:02.172Z,74.81
2023-02-25T13:38:56.256Z,74.77
2023-02-25T13:41:37.765Z,74.88
2023-02-25T13:44:25.983Z,75.19
2023-02-25T13:47:07.176Z,75.28
2023-02-25T13:49:56.332Z,75.41
2023-02-25T13:52:35.163Z,75.56
2023-02-25T13:55:08.401Z,75.67
2023-02-25T13:58:22.197Z,75.75
2023-02-25T14:00:54.072Z,75.77
2023-02-25T14:03:29.047Z,76.20
2023-02-25T14:06:28.446Z,76.21
2023-02-25T14:09:07.766Z,76.43
2023-02-25T14:12:13.010Z,76.57
2023-02-25T14:15:09.035Z,76.80
2023-02-25T14:17:37.927Z,77.00
2023-02-25T14:20:21.697Z,77.14
2023-02-25T14:22:57.205Z,77.22
2023-02-25T14:25:58.344Z,77.39
2023-02-25T14:28:35.915Z,77.61
2023-02-25T14:31:23.920Z,77.89
2023-02-25T14:34:20.476Z,77.93
2023-02-25T14:37:14.958Z,78.19
2023-02-25T14:40:06.752Z,78.26
2023-02-25T14:43:01.838Z,78.26
2023-02-25T14:46:05.691Z,78.38
2023-02-25T14:49:15.573Z,78.62
2023-02-25T14:52:14.566Z,78.84
2023-02-25T14:54:52.565Z,79.03
2023-02-25T14:57:52.081Z,79.16
2023-02-25T15:00:25.693Z,79.17
2023-02-25T15:03:23.537Z,79.33
2023-02-25T15:06:25.854Z,79.44
2023-02-25T15:09:18.984Z,79.37
2023-02-25T15:12:07.107Z,79.45
2023-02-25T15:14:59.621Z,79.77
2023-02-25T15:18:08.482Z,79.81
2023-02-25T15:20:40.740Z,79.87
2023-02-25T15:23:16.724Z,80.11
2023-02-25T15:25:54.005Z,80.05
2023-02-25T15:28:29.119Z,80.08
2023-02-25T15:31:01.400Z,80.24
2023-02-25T15:33:36.244Z,80.13
2023-02-25T15:36:17.461Z,80.31
2023-02-25T15:38:53.662Z,80.39
2023-02-25T15:41:34.740Z,80.52
2023-02-25T15:44:09.060Z,80.73
2023-02-25T15:46:47.642Z,80.98
2023-02-25T15:49:28.806Z,81.12
2023-02-25T15:52:03.230Z,81.34
2023-02-25T15:54:37.743Z,81.78
2023-02-25T15:57:08.756Z,81.81
2023-02-25T15:59:41.421Z,82.12
2023-02-25T16:02:33.492Z,82.14
2023-02-25T16:05:15.563Z,82.32
2023-02-25T16:07:49.473Z,82.64
2023-02-25T16:10:38.702Z,82.94
2023-02-25T16:13:14.461Z,83.09
2023-02-25T16:15:48.545Z,83.19
2023-02-25T16:18:25.478Z,83.33
2023-02-25T16:21:00.186Z,83.59
2023-02-25T16:23:31.466Z,83.28
2023-02-25T16:26:18.213Z,82.85
2023-02-25T16:29:12.585Z,82.61
2023-02-25T16:32:03.448Z,82.38
2023-02-25T16:34:50.511Z,81.91
2023-02-25T16:37:27.613Z,81.68
2023-02-25T16:39:57.611Z,81.56
2023-02-25T16:42:26.118Z,81.61
2023-02-25T16:45:01.210Z,81.86
2023-02-25T16:47:31.095Z,82.17
2023-02-25T16:50:00.397Z,82.41
2023-02-25T16:52:34.136Z,82.58
2023-02-25T16:55:10.834Z,82.89
2023-02-25T16:57:40.358Z,83.05
2023-02-25T17:00:19.641Z,83.28
2023-02-25T17:02:52.774Z,83.44
2023-02-25T17:05:24.057Z,83.56
2023-02-25T17:08:03.093Z,83.60
2023-02-25T17:10:46.608Z,83.68
2023-02-25T17:13:36.886Z,83.76
2023-02-25T17:16:05.399Z,83.75
2023-02-25T17:18:51.305Z,83.88
2023-02-25T17:21:30.097Z,83.92
2023-02-25T17:23:58.484Z,84.03
2023-02-25T17:26:26.978Z,84.11
2023-02-25T17:29:01.619Z,84.02
2023-02-25T17:31:30.144Z,83.82
2023-02-25T17:34:03.644Z,83.87
2023-02-25T17:36:39.474Z,83.77
2023-02-25T17:39:12.425Z,83.80
2023-02-25T17:41:43.848Z,83.84
2023-02-25T17:44:32.906Z,83.67
2023-02-25T17:47:01.960Z,83.45
2023-02-25T17:49:32.581Z,83.03
2023-02-25T17:52:08.187Z,82.83
2023-02-25T17:54:37.342Z,82.72
2023-02-25T17:57:18.977Z,82.39
2023-02-25T17:59:56.911Z,82.49
2023-02-25T18:02:39.134Z,82.54
2023-02-25T18:05:11.341Z,82.66
2023-02-25T18:07:43.628Z,82.58
2023-02-25T18:10:50.354Z,82.62
2023-02-25T18:13:28.383Z,82.55
2023-02-25T18:16:25.057Z,82.84
2023-02-25T18:18:53.735Z,82.88
2023-02-25T18:21:22.150Z,82.75
2023-02-25T18:23:54.086Z,82.63
2023-02-25T18:26:24.641Z,82.81
2023-02-25T18:28:55.021Z,82.84
2023-02-25T18:31:23.342Z,82.82
2023-02-25T18:33:52.274Z,83.04
2023-02-25T18:36:26.971Z,82.93
2023-02-25T18:38:58.273Z,82.92
2023-02-25T18:41:26.846Z,83.09
2023-02-25T18:43:55.249Z,83.07
2023-02-25T18:46:24.090Z,83.08
2023-02-25T18:48:52.772Z,83.35
2023-02-25T18:51:20.970Z,83.40
2023-02-25T18:53:53.017Z,83.36
2023-02-25T18:56:23.122Z,83.40
2023-02-25T18:58:54.784Z,83.62
2023-02-25T19:01:25.278Z,83.67
2023-02-25T19:03:59.460Z,83.81
2023-02-25T19:06:29.792Z,83.69
2023-02-25T19:09:01.547Z,83.55
2023-02-25T19:11:31.696Z,83.71
2023-02-25T19:14:03.733Z,83.76
2023-02-25T19:16:32.369Z,83.65
2023-02-25T19:19:00.669Z,83.56
2023-02-25T19:21:30.202Z,83.72
2023-02-25T19:23:58.741Z,83.49
2023-02-25T19:26:27.237Z,83.54
2023-02-25T19:28:55.738Z,83.77
2023-02-25T19:31:24.002Z,83.77
2023-02-25T19:33:52.418Z,83.77
2023-02-25T19:36:20.706Z,83.62
2023-02-25T19:38:48.968Z,83.84
2023-02-25T19:41:17.633Z,83.44
2023-02-25T19:43:51.698Z,83.77
2023-02-25T19:46:21.030Z,83.83
2023-02-25T19:48:49.355Z,83.73
2023-02-25T19:51:17.630Z,84.03
2023-02-25T19:53:52.618Z,83.95
2023-02-25T19:56:21.683Z,83.75
2023-02-25T19:58:50.121Z,83.88
2023-02-25T20:01:19.108Z,83.92
2023-02-25T20:03:47.710Z,83.84
2023-02-25T20:06:15.932Z,83.86
2023-02-25T20:08:52.666Z,83.94
2023-02-25T20:11:23.624Z,83.74
2023-02-25T20:13:51.847Z,83.81
2023-02-25T20:16:24.144Z,83.85
2023-02-25T20:18:56.563Z,83.97
2023-02-25T20:21:26.042Z,84.04
2023-02-25T20:23:54.613Z,84.04
2023-02-25T20:26:24.771Z,83.98
2023-02-25T20:28:56.600Z,83.94
2023-02-25T20:31:25.840Z,84.04
2023-02-25T20:33:56.521Z,83.85
2023-02-25T20:36:28.892Z,83.68
2023-02-25T20:39:12.963Z,83.75
2023-02-25T20:41:45.312Z,83.81
2023-02-25T20:44:13.813Z,83.49
2023-02-25T20:46:43.226Z,83.51
2023-02-25T20:49:18.231Z,83.26
2023-02-25T20:51:47.598Z,83.18
2023-02-25T20:54:16.795Z,82.70
2023-02-25T20:56:54.044Z,82.58
2023-02-25T20:59:22.309Z,82.66
2023-02-25T21:01:50.574Z,82.28
2023-02-25T21:04:18.844Z,82.36
2023-02-25T21:06:48.146Z,82.80
2023-02-25T21:09:17.049Z,82.47
2023-02-25T21:11:46.198Z,82.42
2023-02-25T21:14:14.493Z,82.47
2023-02-25T21:16:42.844Z,82.74
2023-02-25T21:19:12.298Z,82.76
2023-02-25T21:21:40.835Z,82.69
2023-02-25T21:24:10.382Z,82.60
2023-02-25T21:26:41.409Z,82.63
2023-02-25T21:29:10.873Z,82.99
2023-02-25T21:31:40.036Z,82.75
2023-02-25T21:34:11.818Z,83.14
2023-02-25T21:36:40.936Z,83.41
2023-02-25T21:39:09.654Z,83.43
2023-02-25T21:41:44.289Z,83.29
2023-02-25T21:44:13.178Z,83.33
2023-02-25T21:46:41.449Z,83.33
2023-02-25T21:49:10.830Z,83.09
2023-02-25T21:51:40.364Z,82.96
2023-02-25T21:54:09.051Z,82.89
2023-02-25T21:56:37.735Z,83.19
2023-02-25T21:59:06.153Z,83.21
2023-02-25T22:01:36.872Z,83.08
2023-02-25T22:04:05.495Z,83.21
2023-02-25T22:06:35.246Z,82.84
2023-02-25T22:09:03.964Z,82.91
2023-02-25T22:11:33.993Z,82.78
2023-02-25T22:14:07.034Z,82.72
2023-02-25T22:16:37.081Z,82.65
2023-02-25T22:19:05.305Z,82.92
2023-02-25T22:21:34.324Z,82.67
2023-02-25T22:24:03.513Z,82.33
2023-02-25T22:26:33.423Z,82.42
2023-02-25T22:29:04.640Z,82.52
2023-02-25T22:31:34.348Z,82.58
2023-02-25T22:34:03.228Z,82.77
2023-02-25T22:36:31.539Z,82.74
2023-02-25T22:39:00.138Z,82.76
2023-02-25T22:41:29.243Z,82.59
2023-02-25T22:43:58.508Z,82.39
2023-02-25T22:46:31.463Z,82.51
2023-02-25T22:48:59.766Z,82.36
2023-02-25T22:51:32.992Z,82.52
2023-02-25T22:54:02.280Z,82.49
2023-02-25T22:56:30.622Z,82.39
2023-02-25T22:58:58.902Z,82.51
2023-02-25T23:01:27.426Z,82.80
2023-02-25T23:03:56.424Z,82.63
2023-02-25T23:06:37.485Z,82.89
2023-02-25T23:09:11.679Z,82.62
2023-02-25T23:11:43.598Z,82.58
2023-02-25T23:14:12.904Z,82.68
2023-02-25T23:16:43.296Z,82.82
2023-02-25T23:19:15.806Z,82.71
2023-02-25T23:21:45.223Z,82.46
2023-02-25T23:24:18.773Z,82.29
2023-02-25T23:26:50.319Z,82.69
2023-02-25T23:29:18.724Z,82.37
2023-02-25T23:31:49.241Z,82.65
2023-02-25T23:34:20.019Z,82.55
2023-02-25T23:36:48.686Z,82.87
2023-02-25T23:39:17.207Z,82.62
2023-02-25T23:41:45.594Z,82.85
2023-02-25T23:44:14.463Z,82.58
2023-02-25T23:46:43.219Z,82.74
2023-02-25T23:49:12.915Z,82.95
2023-02-25T23:51:42.821Z,82.65
2023-02-25T23:54:12.332Z,82.70
2023-02-25T23:56:40.490Z,82.62
2023-02-25T23:59:11.056Z,82.65
